createdAt,value
2023-01-13T00:00:21.209Z,66.09
2023-01-13T00:02:26.194Z,66.12
2023-01-13T00:04:31.039Z,66.10
2023-01-13T00:06:35.936Z,66.25
2023-01-13T00:08:40.876Z,66.00
2023-01-13T00:10:48.391Z,65.77
2023-01-13T00:12:53.286Z,65.35
2023-01-13T00:14:58.083Z,65.34
2023-01-13T00:17:03.250Z,65.43
2023-01-13T00:19:08.007Z,65.53
2023-01-13T00:21:16.531Z,65.81
2023-01-13T00:23:24.010Z,65.82
2023-01-13T00:25:28.859Z,66.24
2023-01-13T00:27:34.080Z,66.52
2023-01-13T00:29:39.491Z,66.62
2023-01-13T00:31:44.419Z,66.84
2023-01-13T00:33:49.581Z,66.89
2023-01-13T00:36:01.686Z,66.96
2023-01-13T00:38:06.606Z,67.05
2023-01-13T00:40:13.541Z,67.17
2023-01-13T00:42:18.589Z,67.21
2023-01-13T00:44:23.493Z,67.21
2023-01-13T00:46:28.347Z,67.27
2023-01-13T00:48:33.347Z,67.26
2023-01-13T00:50:41.146Z,67.27
2023-01-13T00:52:48.881Z,67.12
2023-01-13T00:54:53.755Z,67.09
2023-01-13T00:56:58.593Z,67.08
2023-01-13T00:59:03.564Z,67.08
2023-01-13T01:01:11.388Z,67.12
2023-01-13T01:03:16.269Z,67.05
2023-01-13T01:05:21.076Z,66.98
2023-01-13T01:07:25.863Z,66.74
2023-01-13T01:09:30.767Z,66.47
2023-01-13T01:11:36.406Z,66.50
2023-01-13T01:13:46.489Z,66.17
2023-01-13T01:15:51.395Z,66.16
2023-01-13T01:17:56.236Z,66.14
2023-01-13T01:20:01.110Z,65.92
2023-01-13T01:22:06.006Z,65.92
2023-01-13T01:24:11.197Z,65.61
2023-01-13T01:26:18.337Z,65.36
2023-01-13T01:28:23.240Z,65.25
2023-01-13T01:30:30.354Z,65.16
2023-01-13T01:32:36.513Z,65.09
2023-01-13T01:34:41.360Z,65.11
2023-01-13T01:36:46.330Z,65.34
2023-01-13T01:38:51.292Z,65.40
2023-01-13T01:40:56.145Z,65.62
2023-01-13T01:43:01.051Z,65.87
2023-01-13T01:45:14.392Z,66.01
2023-01-13T01:47:20.486Z,66.23
2023-01-13T01:49:30.949Z,66.53
2023-01-13T01:51:40.492Z,66.72
2023-01-13T01:53:46.173Z,66.85
2023-01-13T01:55:51.379Z,66.96
2023-01-13T01:58:02.200Z,66.92
2023-01-13T02:00:11.509Z,66.96
2023-01-13T02:02:19.516Z,67.03
2023-01-13T02:04:28.147Z,67.03
2023-01-13T02:06:32.942Z,66.90
2023-01-13T02:08:40.324Z,66.67
2023-01-13T02:10:51.039Z,66.63
2023-01-13T02:12:58.149Z,66.57
2023-01-13T02:15:08.509Z,66.51
2023-01-13T02:17:26.408Z,66.81
2023-01-13T02:20:04.480Z,66.76
2023-01-13T02:22:26.399Z,66.97
2023-01-13T02:24:59.029Z,67.12
2023-01-13T02:27:44.154Z,67.00
2023-01-13T02:30:03.357Z,66.77
2023-01-13T02:32:14.927Z,66.80
2023-01-13T02:34:25.963Z,66.79
2023-01-13T02:36:37.219Z,67.08
2023-01-13T02:38:50.194Z,66.82
2023-01-13T02:40:58.036Z,66.51
2023-01-13T02:43:08.518Z,66.43
2023-01-13T02:45:17.516Z,66.29
2023-01-13T02:47:25.328Z,66.21
2023-01-13T02:49:36.668Z,66.32
2023-01-13T02:51:45.916Z,66.19
2023-01-13T02:53:55.185Z,65.96
2023-01-13T02:56:02.115Z,65.95
2023-01-13T02:58:10.544Z,65.71
2023-01-13T03:00:18.317Z,65.61
2023-01-13T03:02:25.125Z,65.22
2023-01-13T03:04:59.016Z,65.24
2023-01-13T03:07:11.907Z,65.09
2023-01-13T03:09:25.433Z,65.21
2023-01-13T03:11:34.561Z,65.14
2023-01-13T03:14:00.133Z,64.90
2023-01-13T03:16:15.723Z,65.11
2023-01-13T03:18:35.654Z,65.13
2023-01-13T03:20:47.752Z,65.21
2023-01-13T03:23:03.249Z,65.23
2023-01-13T03:25:14.017Z,65.09
2023-01-13T03:27:25.190Z,65.09
2023-01-13T03:29:35.458Z,65.17
2023-01-13T03:31:46.548Z,65.05
2023-01-13T03:33:58.661Z,64.79
2023-01-13T03:36:08.015Z,64.51
2023-01-13T03:38:17.251Z,64.47
2023-01-13T03:40:25.607Z,64.49
2023-01-13T03:42:33.599Z,64.73
2023-01-13T03:44:44.900Z,64.53
2023-01-13T03:46:56.534Z,64.48
2023-01-13T03:49:02.772Z,64.75
2023-01-13T03:51:11.101Z,64.86
2023-01-13T03:53:20.044Z,64.89
2023-01-13T03:55:29.541Z,64.74
2023-01-13T03:57:39.933Z,64.78
2023-01-13T03:59:48.628Z,65.07
2023-01-13T04:01:59.731Z,65.24
2023-01-13T04:04:09.425Z,65.20
2023-01-13T04:06:17.994Z,64.73
2023-01-13T04:08:26.063Z,64.59
2023-01-13T04:10:35.616Z,64.94
2023-01-13T04:12:48.120Z,64.84
2023-01-13T04:14:53.809Z,64.78
2023-01-13T04:16:58.838Z,64.54
2023-01-13T04:19:03.465Z,64.52
2023-01-13T04:21:08.901Z,64.59
2023-01-13T04:23:13.939Z,64.72
2023-01-13T04:25:18.949Z,64.81
2023-01-13T04:27:23.648Z,64.96
2023-01-13T04:29:29.101Z,65.34
2023-01-13T04:31:33.874Z,65.34
2023-01-13T04:33:38.637Z,65.61
2023-01-13T04:35:43.953Z,65.56
2023-01-13T04:37:48.796Z,65.26
2023-01-13T04:39:53.746Z,65.18
2023-01-13T04:41:58.521Z,65.08
2023-01-13T04:44:03.238Z,64.94
2023-01-13T04:46:08.088Z,64.96
2023-01-13T04:48:13.220Z,64.66
2023-01-13T04:50:18.523Z,64.55
2023-01-13T04:52:23.240Z,64.36
2023-01-13T04:54:27.981Z,64.26
2023-01-13T04:56:32.675Z,64.36
2023-01-13T04:58:37.413Z,64.36
2023-01-13T05:00:42.513Z,64.17
2023-01-13T05:02:48.952Z,64.25
2023-01-13T05:04:53.682Z,64.35
2023-01-13T05:06:58.358Z,64.83
2023-01-13T05:09:03.467Z,64.81
2023-01-13T05:11:08.295Z,65.09
2023-01-13T05:13:13.037Z,65.18
2023-01-13T05:15:17.989Z,65.18
2023-01-13T05:17:24.938Z,65.11
2023-01-13T05:19:30.502Z,64.96
2023-01-13T05:21:35.232Z,65.06
2023-01-13T05:23:39.950Z,65.30
2023-01-13T05:25:46.934Z,65.32
2023-01-13T05:27:52.934Z,65.35
2023-01-13T05:29:57.839Z,65.65
2023-01-13T05:32:02.490Z,66.02
2023-01-13T05:34:07.168Z,65.82
2023-01-13T05:36:12.267Z,66.35
2023-01-13T05:38:17.493Z,66.70
2023-01-13T05:40:22.597Z,66.98
2023-01-13T05:42:27.410Z,67.29
2023-01-13T05:44:32.104Z,67.45
2023-01-13T05:46:36.896Z,67.64
2023-01-13T05:48:42.740Z,68.45
2023-01-13T05:50:48.006Z,69.07
2023-01-13T05:52:52.735Z,69.34
2023-01-13T05:54:57.624Z,70.27
2023-01-13T05:57:02.297Z,70.59
2023-01-13T05:59:06.979Z,70.68
2023-01-13T06:01:12.092Z,70.98
2023-01-13T06:03:17.666Z,71.14
2023-01-13T06:05:22.853Z,71.19
2023-01-13T06:07:27.651Z,71.50
2023-01-13T06:09:32.707Z,71.81
2023-01-13T06:11:37.409Z,72.49
2023-01-13T06:13:42.100Z,72.67
2023-01-13T06:15:46.905Z,73.21
2023-01-13T06:17:52.190Z,73.46
2023-01-13T06:19:56.826Z,73.79
2023-01-13T06:22:06.518Z,73.97
2023-01-13T06:24:11.388Z,74.82
2023-01-13T06:26:20.186Z,74.64
2023-01-13T06:28:24.898Z,75.15
2023-01-13T06:30:33.928Z,75.10
2023-01-13T06:32:43.045Z,75.13
2023-01-13T06:34:53.001Z,75.54
2023-01-13T06:36:57.993Z,75.23
2023-01-13T06:39:04.211Z,75.14
2023-01-13T06:41:09.711Z,75.45
2023-01-13T06:43:16.444Z,75.62
2023-01-13T06:45:22.494Z,74.96
2023-01-13T06:47:27.238Z,75.46
2023-01-13T06:49:32.014Z,74.87
2023-01-13T06:51:36.918Z,75.08
2023-01-13T06:53:41.652Z,74.73
2023-01-13T06:55:46.306Z,74.15
2023-01-13T06:57:53.364Z,74.07
2023-01-13T06:59:58.054Z,74.17
2023-01-13T07:02:03.098Z,74.09
2023-01-13T07:04:08.037Z,73.81
2023-01-13T07:06:12.797Z,73.48
2023-01-13T07:08:17.531Z,73.69
2023-01-13T07:10:22.319Z,73.59
2023-01-13T07:12:27.240Z,73.87
2023-01-13T07:14:32.788Z,73.81
2023-01-13T07:16:37.724Z,74.01
2023-01-13T07:18:42.665Z,73.53
2023-01-13T07:20:53.597Z,73.33
2023-01-13T07:22:58.653Z,73.08
2023-01-13T07:25:03.391Z,73.11
2023-01-13T07:27:08.109Z,72.89
2023-01-13T07:29:13.262Z,72.82
2023-01-13T07:31:19.898Z,72.90
2023-01-13T07:33:25.135Z,72.79
2023-01-13T07:35:30.010Z,72.43
2023-01-13T07:37:36.891Z,72.40
2023-01-13T07:39:44.680Z,72.72
2023-01-13T07:41:49.357Z,72.67
2023-01-13T07:43:54.303Z,72.42
2023-01-13T07:45:59.934Z,72.35
2023-01-13T07:48:05.347Z,72.65
2023-01-13T07:50:11.538Z,72.67
2023-01-13T07:52:16.291Z,73.08
2023-01-13T07:54:25.536Z,73.51
2023-01-13T07:56:36.487Z,73.83
2023-01-13T07:58:41.782Z,73.82
2023-01-13T08:00:46.663Z,73.81
2023-01-13T08:02:51.504Z,73.86
2023-01-13T08:04:56.256Z,74.13
2023-01-13T08:07:00.974Z,74.47
2023-01-13T08:09:05.912Z,74.70
2023-01-13T08:11:10.692Z,74.87
2023-01-13T08:13:17.949Z,75.18
2023-01-13T08:15:22.698Z,75.09
2023-01-13T08:17:27.666Z,75.12
2023-01-13T08:19:32.326Z,75.23
2023-01-13T08:21:37.041Z,75.44
2023-01-13T08:23:42.434Z,75.33
2023-01-13T08:25:47.457Z,75.58
2023-01-13T08:27:52.605Z,75.51
2023-01-13T08:29:57.317Z,75.46
2023-01-13T08:32:02.099Z,75.33
2023-01-13T08:34:06.844Z,75.16
2023-01-13T08:36:14.976Z,75.37
2023-01-13T08:38:19.767Z,75.19
2023-01-13T08:40:24.503Z,74.97
2023-01-13T08:42:29.254Z,74.93
2023-01-13T08:44:34.310Z,74.79
2023-01-13T08:46:39.171Z,74.92
2023-01-13T08:48:43.838Z,75.04
2023-01-13T08:50:48.680Z,75.31
2023-01-13T08:52:53.652Z,75.20
2023-01-13T08:54:58.384Z,75.20
2023-01-13T08:57:03.223Z,74.91
2023-01-13T08:59:09.834Z,75.01
2023-01-13T09:01:16.990Z,74.82
2023-01-13T09:03:21.786Z,74.95
2023-01-13T09:05:26.985Z,75.16
2023-01-13T09:07:32.239Z,75.12
2023-01-13T09:09:37.268Z,75.38
2023-01-13T09:11:45.336Z,75.55
2023-01-13T09:13:50.150Z,75.56
2023-01-13T09:15:55.120Z,75.42
2023-01-13T09:17:59.963Z,75.46
2023-01-13T09:20:05.550Z,75.53
2023-01-13T09:22:13.942Z,75.74
2023-01-13T09:24:18.769Z,75.88
2023-01-13T09:26:23.576Z,76.29
2023-01-13T09:28:28.435Z,76.37
2023-01-13T09:30:33.287Z,76.24
2023-01-13T09:32:38.160Z,75.99
2023-01-13T09:34:43.147Z,75.89
2023-01-13T09:36:47.911Z,75.73
2023-01-13T09:38:52.623Z,75.99
2023-01-13T09:40:57.454Z,75.97
2023-01-13T09:43:11.147Z,75.69
2023-01-13T09:45:19.590Z,75.51
2023-01-13T09:47:30.834Z,75.13
2023-01-13T09:49:39.524Z,74.66
2023-01-13T09:51:49.761Z,74.75
2023-01-13T09:53:59.507Z,74.55
2023-01-13T09:56:05.313Z,74.44
2023-01-13T09:58:14.854Z,74.13
2023-01-13T10:00:23.853Z,74.00
2023-01-13T10:02:37.378Z,73.96
2023-01-13T10:04:42.185Z,73.90
2023-01-13T10:06:52.257Z,73.88
2023-01-13T10:08:57.575Z,73.70
2023-01-13T10:11:07.130Z,73.63
2023-01-13T10:13:19.541Z,73.39
2023-01-13T10:15:27.390Z,73.35
2023-01-13T10:17:37.232Z,73.67
2023-01-13T10:19:48.706Z,73.80
2023-01-13T10:22:19.602Z,74.24
2023-01-13T10:24:39.689Z,74.39
2023-01-13T10:26:59.057Z,74.57
2023-01-13T10:29:03.825Z,74.23
2023-01-13T10:31:13.550Z,74.16
2023-01-13T10:33:22.076Z,74.45
2023-01-13T10:35:56.295Z,74.51
2023-01-13T10:38:01.029Z,74.46
2023-01-13T10:40:17.022Z,74.31
2023-01-13T10:42:23.209Z,74.41
2023-01-13T10:44:28.000Z,74.27
2023-01-13T10:46:34.807Z,74.18
2023-01-13T10:48:42.700Z,74.11
2023-01-13T10:50:48.971Z,73.85
2023-01-13T10:53:02.606Z,73.09
2023-01-13T10:55:27.254Z,73.12
2023-01-13T10:57:37.347Z,72.68
2023-01-13T10:59:42.148Z,72.95
2023-01-13T11:01:59.391Z,72.98
2023-01-13T11:04:25.951Z,72.19
2023-01-13T11:06:31.452Z,71.93
2023-01-13T11:08:45.449Z,71.62
2023-01-13T11:10:52.366Z,71.29
2023-01-13T11:13:03.783Z,71.07
2023-01-13T11:15:15.879Z,70.59
2023-01-13T11:17:39.938Z,70.51
2023-01-13T11:19:52.261Z,70.20
2023-01-13T11:22:01.620Z,70.62
2023-01-13T11:24:15.486Z,70.24
2023-01-13T11:26:26.983Z,70.02
2023-01-13T11:28:40.231Z,69.70
2023-01-13T11:30:53.395Z,69.88
2023-01-13T11:33:27.280Z,69.43
2023-01-13T11:35:36.132Z,69.44
2023-01-13T11:37:47.701Z,69.10
2023-01-13T11:40:00.871Z,68.89
2023-01-13T11:42:17.128Z,68.71
2023-01-13T11:44:28.558Z,68.62
2023-01-13T11:46:33.358Z,69.10
2023-01-13T11:48:43.160Z,69.34
2023-01-13T11:50:54.118Z,69.38
2023-01-13T11:53:12.132Z,68.85
2023-01-13T11:55:31.573Z,68.72
2023-01-13T11:57:55.717Z,68.14
2023-01-13T12:00:25.277Z,67.75
2023-01-13T12:02:48.688Z,67.35
2023-01-13T12:05:07.851Z,66.66
2023-01-13T12:07:22.165Z,66.61
2023-01-13T12:09:47.689Z,66.25
2023-01-13T12:12:03.810Z,66.35
2023-01-13T12:14:20.163Z,66.29
2023-01-13T12:16:27.079Z,65.57
2023-01-13T12:18:55.212Z,66.29
2023-01-13T12:21:13.556Z,66.44
2023-01-13T12:23:26.938Z,65.51
2023-01-13T12:25:37.577Z,64.92
2023-01-13T12:27:47.300Z,64.64
2023-01-13T12:29:56.305Z,64.50
2023-01-13T12:32:03.863Z,64.34
2023-01-13T12:34:24.686Z,64.95
2023-01-13T12:36:37.811Z,64.44
2023-01-13T12:38:48.199Z,63.87
2023-01-13T12:41:07.507Z,63.46
2023-01-13T12:43:18.144Z,63.53
2023-01-13T12:45:30.867Z,63.64
2023-01-13T12:47:38.192Z,62.97
2023-01-13T12:49:42.940Z,63.09
2023-01-13T12:52:04.131Z,62.54
2023-01-13T12:54:53.462Z,62.02
2023-01-13T12:56:58.645Z,61.93
2023-01-13T12:59:38.652Z,60.93
2023-01-13T13:01:44.344Z,60.38
2023-01-13T13:04:13.337Z,60.26
2023-01-13T13:06:22.748Z,59.97
2023-01-13T13:08:41.530Z,59.55
2023-01-13T13:11:00.352Z,59.54
2023-01-13T13:13:20.132Z,59.43
2023-01-13T13:15:27.634Z,59.76
2023-01-13T13:18:00.051Z,59.91
2023-01-13T13:20:05.152Z,60.49
2023-01-13T13:22:18.370Z,61.32
2023-01-13T13:24:29.517Z,61.49
2023-01-13T13:26:38.890Z,62.02
2023-01-13T13:28:55.439Z,62.49
2023-01-13T13:31:11.106Z,62.55
2023-01-13T13:33:33.508Z,63.31
2023-01-13T13:36:02.411Z,63.83
2023-01-13T13:38:18.425Z,64.48
2023-01-13T13:40:23.982Z,64.85
2023-01-13T13:42:36.794Z,65.38
2023-01-13T13:44:45.810Z,66.04
2023-01-13T13:46:50.634Z,66.19
2023-01-13T13:48:56.411Z,66.35
2023-01-13T13:51:03.182Z,66.52
2023-01-13T13:53:08.513Z,66.76
2023-01-13T13:55:19.828Z,66.82
2023-01-13T13:57:32.650Z,66.67
2023-01-13T13:59:40.093Z,67.11
2023-01-13T14:01:52.509Z,67.31
2023-01-13T14:04:12.545Z,67.46
2023-01-13T14:06:23.159Z,67.73
2023-01-13T14:08:29.351Z,67.66
2023-01-13T14:10:36.770Z,67.94
2023-01-13T14:12:41.443Z,68.01
2023-01-13T14:14:47.377Z,68.34
2023-01-13T14:16:52.514Z,68.34
2023-01-13T14:18:57.289Z,68.64
2023-01-13T14:21:13.950Z,68.74
2023-01-13T14:23:21.942Z,69.29
2023-01-13T14:25:34.623Z,69.50
2023-01-13T14:27:44.117Z,69.96
2023-01-13T14:29:49.466Z,70.35
2023-01-13T14:31:55.145Z,70.58
2023-01-13T14:34:02.842Z,71.16
2023-01-13T14:36:40.644Z,71.47
2023-01-13T14:38:47.523Z,71.88
2023-01-13T14:40:52.393Z,71.86
2023-01-13T14:43:01.479Z,72.09
2023-01-13T14:45:23.403Z,71.94
2023-01-13T14:47:29.170Z,71.65
2023-01-13T14:49:37.496Z,72.24
2023-01-13T14:51:42.307Z,72.08
2023-01-13T14:53:47.616Z,72.58
2023-01-13T14:55:52.398Z,72.79
2023-01-13T14:58:26.269Z,72.50
2023-01-13T15:00:31.310Z,73.32
2023-01-13T15:02:41.520Z,73.88
2023-01-13T15:04:46.216Z,74.34
2023-01-13T15:06:56.733Z,74.45
2023-01-13T15:09:01.504Z,75.03
2023-01-13T15:11:18.055Z,75.43
2023-01-13T15:13:34.306Z,75.57
2023-01-13T15:15:41.970Z,75.48
2023-01-13T15:17:46.916Z,74.98
2023-01-13T15:19:53.026Z,75.55
2023-01-13T15:21:58.051Z,75.54
2023-01-13T15:24:02.677Z,75.94
2023-01-13T15:26:17.010Z,75.80
2023-01-13T15:28:23.441Z,75.78
2023-01-13T15:30:28.554Z,75.73
2023-01-13T15:32:33.169Z,76.14
2023-01-13T15:34:37.836Z,75.97
2023-01-13T15:36:42.544Z,76.65
2023-01-13T15:38:47.287Z,76.88
2023-01-13T15:40:52.518Z,76.75
2023-01-13T15:42:57.255Z,76.95
2023-01-13T15:45:02.037Z,77.23
2023-01-13T15:47:09.581Z,77.33
2023-01-13T15:49:21.395Z,77.21
2023-01-13T15:51:26.123Z,77.23
2023-01-13T15:53:30.852Z,77.43
2023-01-13T15:55:38.245Z,77.49
2023-01-13T15:57:48.098Z,77.79
2023-01-13T15:59:55.219Z,79.10
2023-01-13T16:01:59.905Z,79.72
2023-01-13T16:04:05.003Z,82.67
2023-01-13T16:06:16.372Z,83.41
2023-01-13T16:08:22.900Z,81.54
2023-01-13T16:10:28.527Z,81.31
2023-01-13T16:12:33.332Z,79.19
2023-01-13T16:14:38.379Z,78.07
2023-01-13T16:16:43.102Z,77.83
2023-01-13T16:18:48.007Z,78.01
2023-01-13T16:20:53.665Z,79.84
2023-01-13T16:22:58.370Z,79.83
2023-01-13T16:25:03.096Z,78.39
2023-01-13T16:27:14.699Z,80.78
2023-01-13T16:29:19.493Z,79.67
2023-01-13T16:31:29.603Z,78.87
2023-01-13T16:33:34.446Z,80.28
2023-01-13T16:36:08.770Z,78.58
2023-01-13T16:38:03.835Z,79.13
2023-01-13T16:40:17.974Z,80.40
2023-01-13T16:42:23.144Z,81.25
2023-01-13T16:44:28.201Z,81.41
2023-01-13T16:46:33.741Z,81.44
2023-01-13T16:48:38.497Z,81.70
2023-01-13T16:50:43.937Z,83.06
2023-01-13T16:52:48.747Z,83.89
2023-01-13T16:54:53.492Z,83.89
2023-01-13T16:56:58.207Z,84.07
2023-01-13T16:59:10.898Z,84.46
2023-01-13T17:01:21.507Z,84.55
2023-01-13T17:03:26.466Z,84.67
2023-01-13T17:05:34.546Z,84.95
2023-01-13T17:07:39.672Z,84.85
2023-01-13T17:09:44.648Z,84.43
2023-01-13T17:11:49.665Z,84.40
2023-01-13T17:13:54.523Z,84.88
2023-01-13T17:15:59.281Z,85.28
2023-01-13T17:18:04.267Z,85.34
2023-01-13T17:20:14.243Z,85.28
2023-01-13T17:22:19.293Z,85.35
2023-01-13T17:24:24.065Z,85.42
2023-01-13T17:26:33.103Z,84.69
2023-01-13T17:28:37.824Z,84.59
2023-01-13T17:30:45.738Z,84.80
2023-01-13T17:32:51.007Z,85.18
2023-01-13T17:34:57.042Z,85.67
2023-01-13T17:37:03.270Z,85.90
2023-01-13T17:39:08.208Z,86.02
2023-01-13T17:41:14.543Z,86.47
2023-01-13T17:43:19.524Z,86.21
2023-01-13T17:45:24.632Z,86.62
2023-01-13T17:47:30.077Z,86.74
2023-01-13T17:49:35.233Z,87.04
2023-01-13T17:51:40.727Z,86.98
2023-01-13T17:53:47.146Z,87.13
2023-01-13T17:55:53.359Z,87.58
2023-01-13T17:57:58.126Z,87.71
2023-01-13T18:00:04.340Z,87.94
2023-01-13T18:02:17.644Z,88.23
2023-01-13T18:04:25.722Z,88.99
2023-01-13T18:06:30.960Z,88.72
2023-01-13T18:08:35.743Z,88.96
2023-01-13T18:10:40.926Z,89.08
2023-01-13T18:12:46.335Z,89.56
2023-01-13T18:14:51.483Z,89.67
2023-01-13T18:16:56.746Z,89.89
2023-01-13T18:19:02.562Z,89.65
2023-01-13T18:21:08.888Z,89.09
2023-01-13T18:23:18.374Z,89.28
2023-01-13T18:25:23.952Z,88.94
2023-01-13T18:27:33.175Z,89.76
2023-01-13T18:29:38.423Z,90.02
2023-01-13T18:31:43.553Z,90.41
2023-01-13T18:33:49.112Z,90.06
2023-01-13T18:35:54.258Z,89.85
2023-01-13T18:37:59.435Z,89.97
2023-01-13T18:40:05.306Z,90.57
2023-01-13T18:42:11.685Z,90.36
2023-01-13T18:44:18.095Z,90.75
2023-01-13T18:46:23.028Z,91.25
2023-01-13T18:48:28.357Z,91.07
2023-01-13T18:50:33.867Z,90.45
2023-01-13T18:52:39.420Z,90.28
2023-01-13T18:54:45.284Z,90.05
2023-01-13T18:56:50.872Z,89.96
2023-01-13T18:58:56.756Z,89.61
2023-01-13T19:01:06.204Z,89.48
2023-01-13T19:03:12.211Z,89.60
2023-01-13T19:05:17.504Z,89.50
2023-01-13T19:07:23.794Z,89.06
2023-01-13T19:09:28.902Z,88.97
2023-01-13T19:11:34.850Z,88.81
2023-01-13T19:13:40.121Z,88.64
2023-01-13T19:15:45.024Z,88.50
2023-01-13T19:17:50.136Z,88.20
2023-01-13T19:19:56.916Z,88.19
2023-01-13T19:22:02.358Z,88.19
2023-01-13T19:24:09.172Z,88.37
2023-01-13T19:26:15.859Z,88.54
2023-01-13T19:28:21.187Z,88.30
2023-01-13T19:30:26.380Z,88.41
2023-01-13T19:32:32.409Z,88.40
2023-01-13T19:34:37.593Z,88.15
2023-01-13T19:36:42.587Z,87.92
2023-01-13T19:38:47.925Z,87.72
2023-01-13T19:40:59.680Z,87.47
2023-01-13T19:43:04.611Z,87.42
2023-01-13T19:45:12.800Z,86.92
2023-01-13T19:47:19.216Z,86.46
2023-01-13T19:49:26.364Z,85.05
2023-01-13T19:51:31.463Z,83.99
2023-01-13T19:53:36.430Z,82.16
2023-01-13T19:55:45.508Z,81.96
2023-01-13T19:57:50.736Z,80.99
2023-01-13T19:59:56.115Z,79.04
2023-01-13T20:02:02.390Z,78.64
2023-01-13T20:04:07.658Z,77.69
2023-01-13T20:06:13.831Z,77.38
2023-01-13T20:08:20.572Z,75.50
2023-01-13T20:10:26.446Z,75.38
2023-01-13T20:12:31.573Z,74.49
2023-01-13T20:14:38.398Z,75.01
2023-01-13T20:16:45.019Z,73.11
2023-01-13T20:18:53.255Z,73.15
2023-01-13T20:21:02.840Z,73.50
2023-01-13T20:23:09.096Z,73.19
2023-01-13T20:25:15.232Z,73.15
2023-01-13T20:27:21.134Z,72.83
2023-01-13T20:29:26.393Z,73.44
2023-01-13T20:31:32.432Z,72.68
2023-01-13T20:33:38.490Z,73.30
2023-01-13T20:35:44.443Z,72.62
2023-01-13T20:37:50.019Z,72.28
2023-01-13T20:39:56.510Z,72.33
2023-01-13T20:42:03.898Z,71.82
2023-01-13T20:44:09.943Z,71.73
2023-01-13T20:46:15.799Z,71.63
2023-01-13T20:48:21.212Z,72.04
2023-01-13T20:50:26.598Z,72.35
2023-01-13T20:52:33.567Z,72.15
2023-01-13T20:54:39.319Z,71.86
2023-01-13T20:56:45.676Z,71.73
2023-01-13T20:58:50.593Z,71.83
2023-01-13T21:00:59.826Z,72.07
2023-01-13T21:03:05.679Z,71.79
2023-01-13T21:05:10.687Z,71.31
2023-01-13T21:07:16.114Z,71.33
2023-01-13T21:09:21.201Z,71.77
2023-01-13T21:11:27.960Z,71.64
2023-01-13T21:13:36.131Z,71.77
2023-01-13T21:15:46.161Z,70.95
2023-01-13T21:17:53.981Z,71.75
2023-01-13T21:19:58.925Z,71.53
2023-01-13T21:22:03.968Z,71.21
2023-01-13T21:24:08.772Z,71.47
2023-01-13T21:26:14.162Z,71.29
2023-01-13T21:28:19.282Z,71.67
2023-01-13T21:30:24.100Z,71.46
2023-01-13T21:32:28.904Z,71.37
2023-01-13T21:34:34.024Z,70.93
2023-01-13T21:36:38.728Z,71.23
2023-01-13T21:38:43.487Z,70.94
2023-01-13T21:40:55.266Z,70.84
2023-01-13T21:42:59.962Z,71.07
2023-01-13T21:45:05.867Z,70.72
2023-01-13T21:47:16.712Z,70.77
2023-01-13T21:49:21.462Z,70.76
2023-01-13T21:51:26.316Z,71.07
2023-01-13T21:53:31.137Z,70.45
2023-01-13T21:55:36.586Z,70.59
2023-01-13T21:57:44.198Z,70.51
2023-01-13T21:59:51.746Z,70.22
2023-01-13T22:02:12.339Z,70.86
2023-01-13T22:04:21.431Z,70.52
2023-01-13T22:06:26.857Z,70.64
2023-01-13T22:08:31.700Z,70.88
2023-01-13T22:10:36.702Z,70.56
2023-01-13T22:12:41.502Z,70.98
2023-01-13T22:14:46.544Z,70.98
2023-01-13T22:16:51.336Z,71.13
2023-01-13T22:18:56.133Z,70.70
2023-01-13T22:21:03.043Z,70.43
2023-01-13T22:23:07.769Z,70.39
2023-01-13T22:25:14.325Z,70.58
2023-01-13T22:27:20.911Z,70.35
2023-01-13T22:29:25.635Z,70.57
2023-01-13T22:31:30.380Z,70.92
2023-01-13T22:33:35.093Z,70.67
2023-01-13T22:35:39.847Z,70.71
2023-01-13T22:37:44.615Z,70.63
2023-01-13T22:39:49.330Z,70.89
2023-01-13T22:41:54.249Z,70.92
2023-01-13T22:43:59.023Z,70.87
2023-01-13T22:46:06.351Z,70.92
2023-01-13T22:48:11.161Z,70.79
2023-01-13T22:50:15.971Z,70.69
2023-01-13T22:52:20.693Z,70.97
2023-01-13T22:54:25.735Z,70.88
2023-01-13T22:56:31.164Z,71.03
2023-01-13T22:58:36.705Z,71.09
2023-01-13T23:00:41.367Z,70.95
2023-01-13T23:02:46.071Z,70.91
2023-01-13T23:04:50.798Z,70.73
2023-01-13T23:06:56.763Z,70.76
2023-01-13T23:09:02.044Z,70.95
2023-01-13T23:11:14.561Z,70.94
2023-01-13T23:13:19.611Z,70.83
2023-01-13T23:15:24.423Z,70.92
2023-01-13T23:17:29.214Z,71.33
2023-01-13T23:19:33.979Z,71.31
2023-01-13T23:21:39.269Z,71.55
2023-01-13T23:23:44.308Z,71.59
2023-01-13T23:25:52.201Z,71.62
2023-01-13T23:27:56.959Z,71.86
2023-01-13T23:30:01.824Z,71.79
2023-01-13T23:32:07.249Z,71.73
2023-01-13T23:34:11.992Z,71.91
2023-01-13T23:36:18.493Z,72.13
2023-01-13T23:38:23.275Z,72.18
2023-01-13T23:40:28.051Z,72.05
2023-01-13T23:42:32.767Z,72.13
2023-01-13T23:44:37.453Z,72.16
2023-01-13T23:46:42.264Z,72.34
2023-01-13T23:48:47.499Z,72.30
2023-01-13T23:51:00.537Z,72.39
2023-01-13T23:53:05.184Z,72.44
2023-01-13T23:55:10.796Z,72.28
2023-01-13T23:57:15.498Z,72.41
2023-01-13T23:59:20.217Z,72.57
